Parc Mani, Puerto Rico
Current Conditions -  °F | °C
As of 10:50 AM on Sunday 21 Dec 2014 (Local Time) from TJBQ Reporting Station
Few Clouds Few Clouds  
Wind Chill: 81°   Ceiling: Unl
Heat Index: 83°   Visibility: 10mi
Dew Point: 68°   Wind: 21mph
Humidity: 65%   Direction: 80°E
Pressure: 30.11"   Gusts: 26mph
Location:  18.203°N, 67.14°W
Report Text: TJBQ 211450Z 08018G23KT 10SM FEW030 27/20 A3011 RMK RWY 8 ATIS Z
Loading
Personal Weather Stations






























Interactive Weather Map New forecast layout! Learn more

10-Day Weather Forecast

Advertisements
Track Severe Weather on mobile